Time;durP1;ratioP1;P1;durP2;ratioP2;P2;SDS_P1;SDS_P2;PMS_P1;PMS_P2;Temp;Humidity;BMP_temperature;BMP_pressure;BME280_temperature;BME280_humidity;BME280_pressure;Samples;Min_cycle;Max_cycle;Signal;HPM_P1;HPM_P2
2021/07/15 00:02:18;;;;;;;19.32;6.53;;;;;;;19.05;100.00;100989.39;1637995;87;20953;-77
2021/07/15 00:04:44;;;;;;;22.48;6.70;;;;;;;19.03;100.00;100985.61;1637906;87;21012;-73
2021/07/15 00:07:11;;;;;;;25.80;7.40;;;;;;;19.01;100.00;100985.11;1637876;87;20991;-77
2021/07/15 00:09:38;;;;;;;20.15;6.55;;;;;;;18.97;100.00;100987.38;1637745;87;21100;-73
2021/07/15 00:12:08;;;;;;;19.62;6.08;;;;;;;18.93;100.00;100987.19;1637979;87;21059;-78
2021/07/15 00:14:34;;;;;;;20.57;6.67;;;;;;;18.92;100.00;100990.24;1637857;87;21486;-79
2021/07/15 00:17:00;;;;;;;19.60;6.15;;;;;;;18.93;100.00;100989.92;1637786;87;21075;-73
2021/07/15 00:19:29;;;;;;;22.67;7.47;;;;;;;18.94;100.00;100985.26;1637776;87;21153;-76
2021/07/15 00:21:57;;;;;;;22.07;7.45;;;;;;;18.89;100.00;100985.39;1637639;86;21029;-73
2021/07/15 00:24:26;;;;;;;27.70;7.83;;;;;;;18.88;100.00;100985.13;1637493;87;21116;-72
2021/07/15 00:26:53;;;;;;;22.10;6.95;;;;;;;18.88;100.00;100987.29;1637961;87;21539;-77
2021/07/15 00:29:20;;;;;;;23.83;7.55;;;;;;;18.86;100.00;100986.80;1637821;87;21012;-77
2021/07/15 00:31:46;;;;;;;24.77;6.87;;;;;;;18.80;100.00;100985.30;1638174;87;21284;-75
2021/07/15 00:34:11;;;;;;;22.52;6.35;;;;;;;18.80;100.00;100983.94;1637707;87;20992;-73
2021/07/15 00:36:37;;;;;;;21.75;6.08;;;;;;;18.76;100.00;100988.38;1637999;87;20917;-78
2021/07/15 00:39:06;;;;;;;20.97;7.25;;;;;;;18.72;100.00;100990.08;1637623;87;21022;-73
2021/07/15 00:41:34;;;;;;;18.55;6.20;;;;;;;18.71;100.00;100993.93;1625526;85;21077;-80
2021/07/15 00:44:01;;;;;;;16.27;6.12;;;;;;;18.69;100.00;100992.05;1615041;88;21050;-76
2021/07/15 00:46:27;;;;;;;16.60;6.25;;;;;;;18.67;100.00;100988.81;1614977;88;21074;-80
2021/07/15 00:48:53;;;;;;;19.90;6.40;;;;;;;18.59;100.00;100988.98;1608824;88;21088;-76
2021/07/15 00:51:21;;;;;;;22.05;6.45;;;;;;;18.54;100.00;100998.07;1602303;89;20997;-75
2021/07/15 00:53:47;;;;;;;17.85;6.00;;;;;;;18.50;100.00;100991.61;1602263;89;21552;-75
2021/07/15 00:56:13;;;;;;;21.73;6.10;;;;;;;18.45;100.00;100978.62;1593660;89;21046;-75
2021/07/15 00:58:40;;;;;;;24.45;6.70;;;;;;;18.41;100.00;100983.05;1593746;90;21582;-77
2021/07/15 01:01:09;;;;;;;22.82;5.85;;;;;;;18.39;100.00;100980.08;1593613;90;21038;-74
2021/07/15 01:03:37;;;;;;;17.70;6.37;;;;;;;18.39;100.00;100980.08;1601881;89;21174;-72
2021/07/15 01:06:03;;;;;;;13.88;4.87;;;;;;;18.39;100.00;100977.34;1601951;89;21057;-78
2021/07/15 01:08:29;;;;;;;14.53;5.10;;;;;;;18.39;100.00;100975.98;1593636;89;21875;-72
2021/07/15 01:11:07;;;;;;;15.88;5.40;;;;;;;18.30;100.00;100966.89;1593419;90;21581;-77
2021/07/15 01:13:59;;;;;;;13.48;5.17;;;;;;;18.38;100.00;100979.83;1591140;88;21046;-79
2021/07/15 01:16:33;;;;;;;18.37;5.62;;;;;;;18.34;100.00;100979.36;1593923;89;21087;-79
2021/07/15 01:19:30;;;;;;;13.35;4.62;;;;;;;18.29;100.00;100979.45;1534289;92;21035;-72
2021/07/15 01:22:10;;;;;;;14.70;4.90;;;;;;;18.23;100.00;100977.94;1534471;92;21377;-79
2021/07/15 01:25:04;;;;;;;14.23;4.80;;;;;;;18.21;100.00;100978.25;1534260;92;21101;-76
2021/07/15 01:27:59;;;;;;;18.87;5.42;;;;;;;18.19;100.00;100975.56;1534305;92;21071;-80
2021/07/15 01:30:43;;;;;;;17.77;4.87;;;;;;;18.15;100.00;100974.00;1534449;92;21098;-80
2021/07/15 01:33:26;;;;;;;17.10;5.33;;;;;;;18.13;100.00;100970.20;1534380;92;21112;-79
2021/07/15 01:36:11;;;;;;;13.88;4.83;;;;;;;18.10;100.00;100966.71;1486545;96;21139;-79
2021/07/15 01:38:54;;;;;;;14.43;5.40;;;;;;;18.07;100.00;100965.95;1486510;95;21575;-76
2021/07/15 01:41:33;;;;;;;11.63;4.65;;;;;;;18.04;100.00;100967.11;1471106;95;21087;-75
2021/07/15 01:44:12;;;;;;;17.60;4.72;;;;;;;18.04;100.00;100967.92;1497790;95;21547;-75
2021/07/15 01:46:40;;;;;;;15.43;5.05;;;;;;;18.03;100.00;100967.67;1497900;95;21076;-81
2021/07/15 01:49:07;;;;;;;17.05;5.05;;;;;;;18.02;100.00;100962.50;1507130;94;21122;-77
2021/07/15 01:51:35;;;;;;;20.65;5.92;;;;;;;17.99;100.00;100971.29;1497859;95;21146;-82
2021/07/15 01:54:02;;;;;;;17.57;5.00;;;;;;;17.87;100.00;100957.58;1497907;95;21130;-84
2021/07/15 01:56:30;;;;;;;15.40;5.67;;;;;;;18.11;100.00;100975.70;1507386;94;21082;-80
2021/07/15 01:58:57;;;;;;;17.87;5.83;;;;;;;18.11;100.00;100975.70;1497901;95;21091;-77
2021/07/15 02:01:26;;;;;;;22.35;5.47;;;;;;;18.13;100.00;100976.22;1497740;95;21083;-75
2021/07/15 02:03:55;;;;;;;22.02;5.85;;;;;;;18.16;100.00;100970.16;1497765;95;21126;-82
2021/07/15 02:06:23;;;;;;;20.88;5.00;;;;;;;18.14;100.00;100966.91;1497784;95;21628;-83
2021/07/15 02:08:52;;;;;;;25.88;5.67;;;;;;;18.08;100.00;100965.39;1497788;95;21556;-79
2021/07/15 02:11:22;;;;;;;12.23;4.67;;;;;;;18.08;100.00;100965.39;1497838;95;21627;-79
2021/07/15 02:13:49;;;;;;;12.98;4.83;;;;;;;18.06;100.00;100964.34;1498041;95;21293;-77
2021/07/15 02:16:17;;;;;;;20.75;5.05;;;;;;;18.08;100.00;100967.55;1538136;92;21076;-80
2021/07/15 02:18:45;;;;;;;22.52;5.37;;;;;;;18.08;100.00;100967.55;1554674;92;21113;-75
2021/07/15 02:21:12;;;;;;;14.63;4.75;;;;;;;18.11;100.00;100968.31;1554577;92;21061;-76
2021/07/15 02:23:42;;;;;;;13.35;5.62;;;;;;;18.08;100.00;100959.94;1554646;92;21116;-80
2021/07/15 02:26:09;;;;;;;13.78;4.47;;;;;;;18.18;100.00;100973.41;1554699;92;21290;-82
2021/07/15 02:28:35;;;;;;;18.37;4.92;;;;;;;18.24;100.00;100974.12;1554644;92;21056;-75
2021/07/15 02:31:06;;;;;;;15.60;4.78;;;;;;;18.30;100.00;100975.07;1554535;92;20905;-80
2021/07/15 02:33:34;;;;;;;17.27;4.97;;;;;;;18.35;100.00;100977.71;1605335;89;21096;-81
2021/07/15 02:36:03;;;;;;;12.58;5.17;;;;;;;18.44;100.00;100979.16;1605460;89;21038;-79
2021/07/15 02:38:33;;;;;;;16.12;5.62;;;;;;;18.57;100.00;100984.38;1605467;89;21106;-79
2021/07/15 02:41:02;;;;;;;19.35;5.25;;;;;;;18.68;100.00;100980.86;1605376;89;21125;-83
2021/07/15 02:43:28;;;;;;;13.83;5.05;;;;;;;18.76;100.00;100978.81;1605172;89;21129;-79
2021/07/15 02:45:55;;;;;;;24.47;6.20;;;;;;;18.83;100.00;100978.67;1605467;89;21102;-75
2021/07/15 02:48:21;;;;;;;19.27;6.10;;;;;;;18.94;100.00;100984.73;1605439;89;21544;-77
2021/07/15 02:50:48;;;;;;;21.52;5.83;;;;;;;19.04;100.00;100984.48;1605516;89;21087;-75
2021/07/15 02:53:14;;;;;;;19.73;5.97;;;;;;;19.17;100.00;100987.48;1605669;89;21014;-75
2021/07/15 02:56:09;;;;;;;19.25;5.70;;;;;;;19.34;100.00;100989.56;1605947;89;21097;-76
2021/07/15 02:58:40;;;;;;;18.87;6.00;;;;;;;19.55;100.00;100995.36;1605576;89;21203;-75
2021/07/15 03:01:10;;;;;;;23.92;5.10;;;;;;;19.76;100.00;100989.66;1602917;88;21116;-74
2021/07/15 03:04:01;;;;;;;13.05;5.47;;;;;;;19.93;100.00;100985.66;1605616;89;21324;-80
2021/07/15 03:06:37;;;;;;;18.87;6.15;;;;;;;20.08;100.00;100986.39;1605489;88;21125;-76
2021/07/15 03:09:13;;;;;;;23.20;6.67;;;;;;;20.27;100.00;100988.91;1603855;89;21054;-77
2021/07/15 03:11:51;;;;;;;20.50;5.90;;;;;;;20.41;100.00;100990.42;1534215;92;21117;-79
2021/07/15 03:14:18;;;;;;;18.55;5.80;;;;;;;20.53;100.00;100985.73;1531386;93;21059;-81
2021/07/15 03:16:46;;;;;;;17.57;5.70;;;;;;;20.68;100.00;100987.23;1512777;93;21997;-82
2021/07/15 03:19:14;;;;;;;15.40;5.67;;;;;;;20.80;100.00;100985.24;1534235;92;21725;-77
2021/07/15 03:21:43;;;;;;;19.45;5.55;;;;;;;20.99;100.00;100983.57;1534457;92;21188;-74
2021/07/15 03:24:12;;;;;;;17.17;5.65;;;;;;;21.30;100.00;100980.70;1534296;92;21075;-79
2021/07/15 03:26:42;;;;;;;14.10;5.53;;;;;;;21.81;100.00;100977.67;1534504;92;21159;-82
2021/07/15 03:29:12;;;;;;;21.02;6.28;;;;;;;22.37;100.00;100977.68;1534066;93;21259;-79
2021/07/15 03:31:38;;;;;;;16.35;6.22;;;;;;;22.99;100.00;100972.89;1486586;96;21684;-76
2021/07/15 03:34:05;;;;;;;17.37;5.47;;;;;;;23.68;100.00;100978.38;1486750;96;21112;-78
2021/07/15 03:36:33;;;;;;;19.30;5.85;;;;;;;24.33;100.00;100970.38;1486723;96;21073;-78
2021/07/15 03:39:01;;;;;;;21.12;5.45;;;;;;;24.95;100.00;100969.77;1486502;96;21077;-80
2021/07/15 03:41:28;;;;;;;15.18;5.90;;;;;;;25.53;100.00;100970.85;1487358;96;21312;-78
2021/07/15 03:43:57;;;;;;;20.77;6.10;;;;;;;26.13;100.00;100975.03;1492419;95;21033;-80
2021/07/15 03:46:27;;;;;;;20.68;5.65;;;;;;;26.64;100.00;100980.05;1492206;94;33834;-73
2021/07/15 03:48:54;;;;;;;15.32;5.70;;;;;;;27.30;100.00;100976.17;1492242;96;21552;-74
2021/07/15 03:51:21;;;;;;;19.73;5.53;;;;;;;27.75;100.00;100978.22;1492486;96;21126;-80
2021/07/15 03:53:47;;;;;;;16.20;5.37;;;;;;;28.21;100.00;100981.64;1492506;96;21132;-79
2021/07/15 03:56:15;;;;;;;12.45;5.40;;;;;;;28.71;100.00;100980.46;1492349;96;21465;-77
2021/07/15 03:58:44;;;;;;;15.38;6.05;;;;;;;29.09;100.00;100975.86;1492343;96;21100;-79
2021/07/15 04:01:13;;;;;;;14.73;5.00;;;;;;;29.41;100.00;100979.02;1492431;96;21548;-74
2021/07/15 04:03:41;;;;;;;14.98;5.20;;;;;;;29.88;100.00;100976.17;1492735;96;21591;-78
2021/07/15 04:06:12;;;;;;;13.90;5.33;;;;;;;30.44;100.00;100976.23;1492447;96;22034;-74
2021/07/15 04:08:42;;;;;;;12.03;4.80;;;;;;;30.89;100.00;100976.96;1506540;94;21120;-73
2021/07/15 04:11:08;;;;;;;12.20;5.20;;;;;;;31.50;92.80;100982.78;1511609;94;21215;-78
2021/07/15 04:13:37;;;;;;;10.30;4.42;;;;;;;32.01;90.59;100981.12;1511572;95;21176;-75
2021/07/15 04:16:53;;;;;;;13.13;4.83;;;;;;;32.70;82.39;100983.27;1511511;95;21104;-79
2021/07/15 04:19:20;;;;;;;12.45;4.47;;;;;;;33.14;74.49;100988.95;1511106;95;22055;-79
2021/07/15 04:21:47;;;;;;;11.80;4.50;;;;;;;33.66;70.35;100985.71;1511532;94;21618;-78
2021/07/15 04:24:14;;;;;;;7.62;4.05;;;;;;;34.07;66.91;100984.25;1511251;94;21580;-78
2021/07/15 04:26:42;;;;;;;10.58;4.12;;;;;;;34.28;62.12;100987.47;1511240;94;21128;-74
2021/07/15 04:29:09;;;;;;;16.93;4.85;;;;;;;34.57;58.97;100981.02;1606849;87;21537;-78
2021/07/15 04:32:04;;;;;;;8.13;4.17;;;;;;;34.58;55.78;100988.99;1662649;86;21530;-77
2021/07/15 04:34:32;;;;;;;8.70;4.83;;;;;;;34.84;55.26;100985.94;1659798;84;21081;-75
2021/07/15 04:36:59;;;;;;;11.18;4.33;;;;;;;35.21;53.88;100982.29;1665557;85;21026;-79
2021/07/15 04:39:26;;;;;;;10.80;5.37;;;;;;;35.54;52.44;100981.27;1661806;86;21053;-78
2021/07/15 04:41:56;;;;;;;7.80;4.45;;;;;;;35.92;51.48;100981.91;1662236;85;21136;-75
2021/07/15 04:44:22;;;;;;;13.25;4.67;;;;;;;36.44;50.52;100982.05;1628709;86;21773;-78
2021/07/15 04:46:52;;;;;;;12.00;5.12;;;;;;;36.86;46.80;100987.50;1656451;86;21040;-79
2021/07/15 04:49:20;;;;;;;12.05;4.62;;;;;;;37.26;45.61;100984.67;1656025;86;21087;-79
2021/07/15 04:51:47;;;;;;;12.37;4.60;;;;;;;37.71;46.11;100984.89;1656823;86;21028;-79
2021/07/15 04:54:15;;;;;;;16.23;5.30;;;;;;;38.39;44.16;100983.23;1656494;86;21083;-79
2021/07/15 04:56:42;;;;;;;11.33;4.80;;;;;;;38.68;42.42;100983.87;1656430;86;21090;-79
2021/07/15 04:59:09;;;;;;;18.12;5.30;;;;;;;38.58;38.28;100980.71;1656641;86;21083;-78
2021/07/15 05:01:36;;;;;;;13.32;4.92;;;;;;;38.33;40.14;100987.00;1656408;86;21107;-80
2021/07/15 05:04:02;;;;;;;11.88;5.30;;;;;;;38.76;40.10;100992.89;1656452;86;21641;-79
2021/07/15 05:06:28;;;;;;;10.05;4.62;;;;;;;39.24;37.66;100991.11;1656537;86;20960;-79
2021/07/15 05:08:54;;;;;;;14.45;5.12;;;;;;;39.66;37.47;100987.62;1659953;86;21620;-79
2021/07/15 05:11:23;;;;;;;8.83;4.87;;;;;;;39.92;35.48;100984.81;1663670;86;21495;-79
2021/07/15 05:13:49;;;;;;;8.98;5.08;;;;;;;39.90;35.68;100984.47;1663513;86;21300;-80
2021/07/15 05:16:15;;;;;;;10.15;4.40;;;;;;;40.54;34.46;100984.31;1637261;86;21163;-79
2021/07/15 05:18:42;;;;;;;10.00;5.03;;;;;;;40.80;32.87;100990.64;1663809;86;21097;-79
2021/07/15 05:21:08;;;;;;;12.03;5.17;;;;;;;40.60;32.98;100987.50;1663497;86;21135;-79
2021/07/15 05:23:35;;;;;;;9.65;4.83;;;;;;;40.86;32.86;100993.06;1663482;86;21374;-80
2021/07/15 05:26:01;;;;;;;12.20;5.03;;;;;;;40.94;31.54;100997.17;1663470;86;21078;-79
2021/07/15 05:28:27;;;;;;;10.90;5.12;;;;;;;40.92;32.21;100995.45;1663803;86;21683;-79
2021/07/15 05:30:54;;;;;;;9.83;4.92;;;;;;;41.02;31.96;100987.81;1663780;86;21030;-80
2021/07/15 05:33:22;;;;;;;12.33;5.08;;;;;;;41.29;31.78;100987.98;1649487;84;21101;-80
2021/07/15 05:35:47;;;;;;;10.08;4.60;;;;;;;41.35;31.29;100990.99;1642787;86;21009;-79
2021/07/15 05:38:13;;;;;;;5.20;4.35;;;;;;;41.44;30.93;100999.52;1628502;88;20901;-80
2021/07/15 05:40:39;;;;;;;9.53;4.42;;;;;;;41.84;31.07;101004.42;1643378;84;20918;-79
2021/07/15 05:43:05;;;;;;;8.40;4.40;;;;;;;42.12;28.67;101001.66;1647516;84;20929;-80
2021/07/15 05:45:32;;;;;;;7.58;4.20;;;;;;;41.70;28.70;101004.37;1591685;89;21154;-80
2021/07/15 05:47:58;;;;;;;11.97;4.20;;;;;;;41.52;30.29;101002.27;1583989;90;21058;-80
2021/07/15 05:50:27;;;;;;;13.68;4.55;;;;;;;41.78;28.53;101001.27;1583459;90;21118;-80
2021/07/15 05:52:53;;;;;;;13.75;4.60;;;;;;;41.60;28.49;101001.36;1575277;89;21335;-80
2021/07/15 05:55:20;;;;;;;9.98;4.45;;;;;;;41.31;28.57;101002.45;1591053;89;21088;-80
2021/07/15 05:57:46;;;;;;;11.88;4.40;;;;;;;41.22;29.28;100993.92;1585124;89;21884;-81
2021/07/15 06:00:13;;;;;;;8.63;4.30;;;;;;;41.88;29.24;100996.55;1580161;88;20926;-80
2021/07/15 06:02:40;;;;;;;12.55;5.45;;;;;;;42.36;28.56;100992.77;1573302;89;21078;-80
2021/07/15 06:05:07;;;;;;;6.15;4.83;;;;;;;42.31;27.71;100984.88;1585983;89;21707;-80
2021/07/15 06:12:29;;;;;;;12.20;5.70;;;;;;;42.22;27.82;100974.94;1870630;76;21982;-81
2021/07/15 06:14:55;;;;;;;9.23;4.92;;;;;;;43.07;27.48;100978.83;1826856;77;21026;-80
2021/07/15 06:17:22;;;;;;;7.97;4.58;;;;;;;43.31;27.19;100973.25;1826742;78;20908;-80
2021/07/15 06:19:51;;;;;;;9.35;4.90;;;;;;;43.54;25.39;100973.18;1826504;78;20973;-80
2021/07/15 06:22:20;;;;;;;6.10;4.55;;;;;;;43.19;25.78;100976.30;1826411;78;21086;-82
2021/07/15 06:24:46;;;;;;;13.20;5.50;;;;;;;43.27;26.28;100970.42;1826759;78;21428;-78
2021/07/15 06:27:11;;;;;;;9.53;5.70;;;;;;;43.26;25.78;100967.44;1806365;78;20988;-82
2021/07/15 06:29:37;;;;;;;10.10;4.90;;;;;;;43.29;25.52;100970.09;1826789;78;21061;-80
2021/07/15 06:32:03;;;;;;;11.48;4.87;;;;;;;43.13;26.24;100970.49;1826840;78;20940;-79
2021/07/15 06:34:29;;;;;;;6.87;5.30;;;;;;;43.89;27.08;100967.59;1826871;78;21027;-78
2021/07/15 06:36:55;;;;;;;6.65;5.55;;;;;;;45.26;25.19;100963.41;1826814;78;20904;-84
2021/07/15 06:39:21;;;;;;;13.10;5.50;;;;;;;45.48;24.16;100971.52;1826991;78;20880;-77
2021/07/15 06:41:47;;;;;;;8.60;5.30;;;;;;;45.80;24.40;100971.06;1826808;78;21716;-82
2021/07/15 06:44:17;;;;;;;11.43;5.28;;;;;;;46.38;24.58;100973.51;1826997;78;20943;-83
2021/07/15 06:46:42;;;;;;;10.63;5.90;;;;;;;46.70;23.73;100965.05;1826917;78;21519;-81
2021/07/15 06:49:08;;;;;;;6.65;5.78;;;;;;;46.22;23.96;100961.27;1820587;77;21059;-80
2021/07/15 06:51:34;;;;;;;8.18;6.20;;;;;;;46.38;24.45;100962.10;1824605;77;21724;-81
2021/07/15 06:54:00;;;;;;;10.68;6.00;;;;;;;46.67;23.51;100960.35;1833657;77;20957;-80
2021/07/15 06:56:26;;;;;;;11.55;6.67;;;;;;;47.09;23.27;100960.34;1828046;77;20931;-80
2021/07/15 06:58:52;;;;;;;11.68;7.42;;;;;;;47.53;22.67;100955.59;1818061;77;20971;-82
2021/07/15 07:01:18;;;;;;;11.22;7.60;;;;;;;47.52;21.62;100948.33;1826858;78;21015;-86
2021/07/15 07:03:46;;;;;;;10.40;7.28;;;;;;;47.48;23.23;100948.42;1826973;78;20837;-78
2021/07/15 07:06:12;;;;;;;8.00;7.17;;;;;;;48.17;21.27;100951.90;1826518;78;21054;-76
2021/07/15 07:08:37;;;;;;;11.68;7.25;;;;;;;48.26;21.21;100948.67;1806071;78;21102;-82
2021/07/15 07:11:03;;;;;;;11.95;7.33;;;;;;;48.50;21.05;100950.43;1826647;78;20895;-78
2021/07/15 07:13:29;;;;;;;9.13;7.40;;;;;;;48.86;20.22;100946.44;1826889;78;20919;-80
2021/07/15 07:15:55;;;;;;;10.28;7.50;;;;;;;48.21;19.52;100944.49;1827271;78;20808;-79
2021/07/15 07:18:21;;;;;;;11.70;7.42;;;;;;;48.30;19.81;100940.61;1821748;77;21919;-80
2021/07/15 07:20:47;;;;;;;8.53;7.60;;;;;;;48.83;19.83;100931.71;1821179;77;20880;-84
2021/07/15 07:23:14;;;;;;;11.20;6.50;;;;;;;49.53;19.15;100939.84;1826511;77;20985;-81
2021/07/15 07:25:41;;;;;;;8.13;7.17;;;;;;;49.64;18.39;100940.50;1822201;78;21499;-81
2021/07/15 07:28:07;;;;;;;9.25;7.33;;;;;;;48.59;19.71;100945.89;1819654;78;20988;-81
2021/07/15 07:30:33;;;;;;;7.53;6.72;;;;;;;48.78;18.82;100938.23;1820404;78;21106;-79
2021/07/15 07:32:59;;;;;;;7.08;6.40;;;;;;;48.91;18.52;100934.88;1825878;78;21050;-82
2021/07/15 07:35:30;;;;;;;9.50;6.72;;;;;;;48.91;18.77;100927.72;1826090;78;21033;-81
2021/07/15 07:37:56;;;;;;;8.18;6.30;;;;;;;49.43;17.82;100933.64;1825925;78;20957;-76
2021/07/15 07:40:22;;;;;;;9.50;5.80;;;;;;;48.96;17.16;100932.01;1826228;78;20947;-83
2021/07/15 07:42:48;;;;;;;8.33;6.08;;;;;;;47.84;18.33;100941.77;1826146;78;21043;-76
2021/07/15 07:45:15;;;;;;;7.08;5.80;;;;;;;48.26;18.64;100941.53;1825645;78;21574;-82
2021/07/15 07:47:42;;;;;;;6.12;5.50;;;;;;;48.67;17.81;100931.20;1826032;78;20988;-78
2021/07/15 07:50:11;;;;;;;6.58;5.33;;;;;;;48.44;17.30;100928.16;1825889;77;21031;-78
2021/07/15 07:52:38;;;;;;;5.90;5.40;;;;;;;48.00;17.76;100927.52;1825952;78;20999;-78
2021/07/15 07:55:07;;;;;;;5.62;5.08;;;;;;;47.75;17.73;100932.73;1820953;77;21463;-79
2021/07/15 07:57:33;;;;;;;7.95;5.20;;;;;;;47.98;18.34;100932.98;1840288;77;20930;-78
2021/07/15 08:02:35;;;;;;;5.62;4.80;;;;;;;47.95;17.62;100941.16;1790615;80;21505;-78
2021/07/15 08:05:05;;;;;;;9.38;5.00;;;;;;;48.23;17.74;100933.33;1768099;80;21076;-78
2021/07/15 08:07:30;;;;;;;6.47;4.80;;;;;;;47.48;17.50;100926.38;1759619;80;21066;-84
2021/07/15 08:09:56;;;;;;;5.55;4.53;;;;;;;47.79;18.53;100931.86;1752125;80;20971;-78
2021/07/15 08:12:22;;;;;;;4.70;4.30;;;;;;;47.93;17.08;100927.25;1747481;80;21067;-78
2021/07/15 08:14:51;;;;;;;6.45;4.62;;;;;;;48.45;17.33;100923.37;1759320;81;20879;-79
2021/07/15 08:17:16;;;;;;;4.80;4.33;;;;;;;49.41;16.42;100916.84;1759782;81;21072;-79
2021/07/15 08:19:42;;;;;;;9.73;4.28;;;;;;;49.77;16.71;100921.43;1758406;80;21369;-77
2021/07/15 08:22:08;;;;;;;8.70;4.65;;;;;;;49.83;15.84;100917.73;1759451;81;21036;-80
2021/07/15 08:24:34;;;;;;;4.33;4.03;;;;;;;48.85;15.85;100913.38;1759511;81;21072;-79
2021/07/15 08:27:01;;;;;;;5.90;4.20;;;;;;;47.83;15.54;100915.23;1759488;80;20879;-78
2021/07/15 08:29:27;;;;;;;4.58;3.65;;;;;;;47.09;16.34;100916.88;1759308;81;21112;-79
2021/07/15 08:31:53;;;;;;;3.70;3.40;;;;;;;46.42;17.36;100917.70;1759584;81;21143;-79
2021/07/15 08:34:21;;;;;;;4.50;3.55;;;;;;;47.29;17.95;100909.48;1759305;81;20969;-80
2021/07/15 08:36:46;;;;;;;5.47;3.90;;;;;;;48.08;16.48;100917.02;1759297;81;21068;-80
2021/07/15 08:39:13;;;;;;;4.15;3.65;;;;;;;47.72;16.88;100919.48;1759657;81;20887;-79
2021/07/15 08:41:39;;;;;;;5.40;3.58;;;;;;;48.34;16.85;100915.42;1759433;80;21568;-81
2021/07/15 08:44:06;;;;;;;5.33;3.45;;;;;;;48.57;16.33;100915.60;1758947;81;21533;-79
2021/07/15 08:46:35;;;;;;;9.93;3.50;;;;;;;47.62;15.71;100908.89;1759548;81;21208;-78
2021/07/15 08:49:03;;;;;;;3.35;3.05;;;;;;;47.39;16.17;100911.47;1759234;81;21478;-78
2021/07/15 08:51:29;;;;;;;3.87;3.42;;;;;;;48.23;15.40;100911.88;1759102;81;21588;-85
2021/07/15 08:53:58;;;;;;;4.70;3.12;;;;;;;48.04;15.18;100912.99;1759328;81;20993;-79
2021/07/15 08:56:36;;;;;;;7.72;3.33;;;;;;;47.83;15.01;100907.31;1759352;81;21592;-78
2021/07/15 08:59:06;;;;;;;3.25;2.95;;;;;;;48.75;15.63;100903.52;1771010;79;21549;-78
2021/07/15 09:01:34;;;;;;;3.50;3.20;;;;;;;48.59;14.41;100904.40;1806855;79;21079;-78
2021/07/15 09:04:01;;;;;;;4.10;3.12;;;;;;;47.52;14.59;100910.42;1777715;79;21078;-84
2021/07/15 09:06:28;;;;;;;3.00;2.80;;;;;;;46.28;15.20;100910.04;1774884;80;20952;-79
2021/07/15 09:08:55;;;;;;;5.00;2.42;;;;;;;46.91;14.74;100906.47;1795332;79;21148;-78
2021/07/15 09:11:23;;;;;;;6.97;3.15;;;;;;;47.89;14.94;100900.34;1800169;79;21026;-76
2021/07/15 09:13:50;;;;;;;6.37;3.00;;;;;;;48.48;15.21;100897.86;1795209;79;21401;-80
2021/07/15 09:16:17;;;;;;;2.67;2.47;;;;;;;49.02;14.91;100901.28;1777242;79;20963;-79
2021/07/15 09:19:03;;;;;;;6.67;2.85;;;;;;;49.56;15.37;100888.02;1803561;79;21000;-79
2021/07/15 09:21:34;;;;;;;2.70;2.50;;;;;;;49.88;14.93;100890.47;1803552;79;22038;-85
2021/07/15 09:24:06;;;;;;;6.60;2.70;;;;;;;49.34;14.51;100886.66;1803705;79;21032;-77
2021/07/15 09:26:32;;;;;;;9.48;2.80;;;;;;;48.62;15.03;100886.84;1799489;79;20992;-79
2021/07/15 09:29:16;;;;;;;6.78;2.55;;;;;;;47.33;14.82;100886.55;1776864;79;21486;-79
2021/07/15 09:31:58;;;;;;;8.70;2.40;;;;;;;46.56;15.56;100890.33;1803269;79;21027;-77
2021/07/15 09:34:28;;;;;;;7.08;2.98;;;;;;;46.28;15.32;100900.06;1754114;81;21132;-80
2021/07/15 09:36:55;;;;;;;3.90;2.50;;;;;;;45.77;16.10;100893.72;1660330;86;21050;-80
2021/07/15 09:39:25;;;;;;;6.53;2.35;;;;;;;45.73;16.11;100893.94;1643923;87;21547;-78
2021/07/15 09:42:17;;;;;;;10.55;2.55;;;;;;;45.89;15.70;100893.23;1644158;87;21098;-79
2021/07/15 09:44:46;;;;;;;2.58;2.00;;;;;;;46.11;16.30;100882.10;1644219;87;21059;-78
2021/07/15 09:47:38;;;;;;;9.83;1.77;;;;;;;46.04;16.85;100888.87;1644165;87;21501;-78
2021/07/15 09:50:22;;;;;;;2.52;2.02;;;;;;;45.90;17.14;100888.48;1643921;87;21035;-78
2021/07/15 09:52:47;;;;;;;3.00;2.30;;;;;;;45.50;15.85;100887.16;1643573;87;21086;-79
2021/07/15 09:55:25;;;;;;;3.60;2.05;;;;;;;45.20;16.96;100884.27;1643944;87;21136;-78
2021/07/15 09:58:07;;;;;;;2.55;1.80;;;;;;;45.23;17.04;100890.38;1643982;87;21613;-78
2021/07/15 10:00:37;;;;;;;3.83;2.00;;;;;;;45.38;17.28;100890.34;1644073;87;21185;-78
2021/07/15 10:03:07;;;;;;;5.25;1.80;;;;;;;45.35;17.02;100886.41;1598347;89;21140;-78
2021/07/15 10:05:35;;;;;;;4.65;1.80;;;;;;;44.89;17.66;100885.59;1569460;90;21541;-78
2021/07/15 10:08:08;;;;;;;2.30;1.75;;;;;;;44.84;17.26;100879.16;1576153;91;21569;-77
2021/07/15 10:10:36;;;;;;;5.78;2.05;;;;;;;44.91;17.09;100877.97;1576355;91;21113;-79
2021/07/15 10:13:15;;;;;;;4.10;1.80;;;;;;;44.64;17.03;100879.84;1564621;91;21177;-78
2021/07/15 10:15:42;;;;;;;8.18;2.17;;;;;;;44.29;18.38;100871.95;1471252;97;21085;-76
2021/07/15 10:18:08;;;;;;;7.50;2.20;;;;;;;44.29;18.38;100871.95;1503095;95;21578;-78
2021/07/15 10:20:34;;;;;;;7.47;1.90;;;;;;;44.09;18.13;100876.88;1503371;95;21099;-78
2021/07/15 10:23:00;;;;;;;4.12;1.62;;;;;;;43.74;18.62;100865.30;1502998;95;21082;-77
2021/07/15 10:25:26;;;;;;;4.78;1.50;;;;;;;43.41;19.31;100871.03;1503091;95;21150;-78
2021/07/15 10:27:53;;;;;;;6.85;1.70;;;;;;;43.30;19.30;100866.69;1503962;92;21594;-76
2021/07/15 10:30:19;;;;;;;4.53;1.70;;;;;;;43.29;19.50;100865.09;1552368;92;21120;-77
2021/07/15 10:32:46;;;;;;;2.65;1.85;;;;;;;43.21;19.63;100861.06;1552299;92;21630;-78
2021/07/15 10:35:12;;;;;;;3.42;2.12;;;;;;;43.42;19.94;100859.81;1552339;92;21065;-76
2021/07/15 10:37:46;;;;;;;5.00;2.12;;;;;;;43.58;19.49;100850.91;1552592;92;21097;-78
2021/07/15 10:40:16;;;;;;;3.75;1.82;;;;;;;43.31;18.91;100856.12;1543341;92;21637;-77
2021/07/15 10:42:42;;;;;;;6.85;1.50;;;;;;;43.01;18.33;100852.31;1518156;94;21169;-78
2021/07/15 10:45:14;;;;;;;8.30;2.05;;;;;;;43.06;18.89;100851.00;1499556;94;21129;-79
2021/07/15 10:47:40;;;;;;;4.65;1.70;;;;;;;42.98;18.63;100840.52;1515846;93;21661;-82
2021/07/15 10:50:09;;;;;;;2.67;1.75;;;;;;;43.00;18.81;100838.73;1517920;93;21208;-78
2021/07/15 10:52:37;;;;;;;6.87;1.92;;;;;;;43.19;19.92;100833.80;1517971;94;21078;-78
2021/07/15 10:55:06;;;;;;;1.92;1.72;;;;;;;43.02;20.22;100836.86;1506932;95;21173;-78
2021/07/15 10:57:32;;;;;;;3.72;1.98;;;;;;;43.05;19.38;100837.31;1507046;95;21663;-78
2021/07/15 11:00:24;;;;;;;6.75;1.70;;;;;;;42.97;20.43;100835.44;1511103;94;21072;-79
2021/07/15 11:03:23;;;;;;;3.60;1.77;;;;;;;42.88;20.21;100838.33;1494826;95;21568;-77
2021/07/15 11:05:56;;;;;;;6.03;1.70;;;;;;;42.76;19.52;100834.44;1509080;95;21061;-78
2021/07/15 11:08:47;;;;;;;6.78;1.52;;;;;;;42.43;20.89;100824.45;1509282;95;21092;-79
2021/07/15 11:11:13;;;;;;;2.10;1.50;;;;;;;42.61;19.41;100832.11;1509098;95;21134;-79
2021/07/15 11:13:42;;;;;;;5.08;1.77;;;;;;;42.85;19.74;100830.14;1629423;87;21254;-79
2021/07/15 11:16:08;;;;;;;6.03;1.70;;;;;;;43.14;20.29;100831.61;1643300;87;21205;-79
2021/07/15 11:18:47;;;;;;;6.22;1.60;;;;;;;43.47;20.04;100826.52;1643172;87;21103;-78
2021/07/15 11:21:32;;;;;;;4.08;1.67;;;;;;;43.42;19.42;100832.24;1643348;87;21447;-79
2021/07/15 11:24:10;;;;;;;4.15;1.90;;;;;;;43.18;19.23;100830.79;1622598;88;21057;-79
2021/07/15 11:26:41;;;;;;;3.08;2.00;;;;;;;42.88;19.68;100832.02;1622829;88;21153;-79
2021/07/15 11:29:08;;;;;;;5.05;1.90;;;;;;;42.87;19.64;100820.53;1595439;90;21231;-78
2021/07/15 11:31:53;;;;;;;4.40;1.72;;;;;;;43.23;20.03;100817.38;1595367;90;21054;-78
2021/07/15 11:34:39;;;;;;;3.15;2.00;;;;;;;43.34;19.90;100808.97;1592837;90;21135;-78
2021/07/15 11:37:36;;;;;;;5.85;1.62;;;;;;;43.17;20.24;100810.78;1595383;90;21053;-78